Terminal Aerodrome Forecast
Issued by NWS Mt. Holly, NJ

Home | Current Version | Previous Version | Text Only | Print | Product List | Glossary On
Versions: 1 2 3 4 5 6 7 8 9 10 11 12 13 14 15 16 17 18 19 20 21 22 23
229
FTUS41 KPHI 291625 AAB
TAFILG
TAF AMD
KILG 291625Z 2916/3012 25012KT P6SM FEW050 BKN250
     FM292200 28009KT P6SM -SHRA VCTS SCT050CB BKN150
     FM300300 01006KT P6SM BKN150
     FM300500 03005KT 5SM BR OVC015=

USA.gov is the U.S. government's official web portal to all federal, state and local government web resources and services.